sensor_id;sensor_type;location;lat;lon;timestamp;temperature;humidity
27026;DHT22;14565;48.626;8.978;2022-12-10T14:07:18;0.70;99.90
27026;DHT22;14565;48.626;8.978;2022-12-10T14:09:51;0.70;99.90
27026;DHT22;14565;48.626;8.978;2022-12-10T14:12:30;0.80;99.90
27026;DHT22;14565;48.626;8.978;2022-12-10T14:15:07;0.70;99.90
27026;DHT22;14565;48.626;8.978;2022-12-10T14:17:39;0.70;99.90
27026;DHT22;14565;48.626;8.978;2022-12-10T14:20:07;0.60;99.90
27026;DHT22;14565;48.626;8.978;2022-12-10T14:22:37;0.60;99.90
27026;DHT22;14565;48.626;8.978;2022-12-10T14:25:09;0.60;99.90
27026;DHT22;14565;48.626;8.978;2022-12-10T14:27:36;0.50;99.90
27026;DHT22;14565;48.626;8.978;2022-12-10T14:30:15;0.60;99.90
27026;DHT22;14565;48.626;8.978;2022-12-10T14:32:42;0.70;99.90
27026;DHT22;14565;48.626;8.978;2022-12-10T14:35:14;0.70;99.90
27026;DHT22;14565;48.626;8.978;2022-12-10T14:37:45;0.60;99.90
27026;DHT22;14565;48.626;8.978;2022-12-10T14:43:06;0.30;99.90
27026;DHT22;14565;48.626;8.978;2022-12-10T14:45:42;0.40;99.90
27026;DHT22;14565;48.626;8.978;2022-12-10T14:48:11;0.50;99.90
27026;DHT22;14565;48.626;8.978;2022-12-10T14:50:38;0.40;99.90
27026;DHT22;14565;48.626;8.978;2022-12-10T14:53:08;0.40;99.90
27026;DHT22;14565;48.626;8.978;2022-12-10T14:55:37;0.30;99.90
27026;DHT22;14565;48.626;8.978;2022-12-10T14:58:04;0.50;99.90
27026;DHT22;14565;48.626;8.978;2022-12-10T15:00:31;0.40;99.90
27026;DHT22;14565;48.626;8.978;2022-12-10T15:03:00;0.40;99.90
27026;DHT22;14565;48.626;8.978;2022-12-10T15:05:31;0.30;99.90
27026;DHT22;14565;48.626;8.978;2022-12-10T15:08:02;0.30;99.90
27026;DHT22;14565;48.626;8.978;2022-12-10T15:10:34;0.30;99.90
27026;DHT22;14565;48.626;8.978;2022-12-10T15:13:01;0.20;99.90
27026;DHT22;14565;48.626;8.978;2022-12-10T15:18:16;0.10;99.90
27026;DHT22;14565;48.626;8.978;2022-12-10T15:20:48;0.20;99.90
27026;DHT22;14565;48.626;8.978;2022-12-10T15:28:33;0.20;99.90
27026;DHT22;14565;48.626;8.978;2022-12-10T15:33:37;0.00;99.90
27026;DHT22;14565;48.626;8.978;2022-12-10T15:36:04;0.10;99.90
27026;DHT22;14565;48.626;8.978;2022-12-10T15:38:31;0.00;99.90
27026;DHT22;14565;48.626;8.978;2022-12-10T15:40:59;0.00;99.90
27026;DHT22;14565;48.626;8.978;2022-12-10T15:43:26;0.00;99.90
27026;DHT22;14565;48.626;8.978;2022-12-10T15:45:54;0.00;99.90
27026;DHT22;14565;48.626;8.978;2022-12-10T15:48:20;0.00;99.90
27026;DHT22;14565;48.626;8.978;2022-12-10T15:50:47;0.00;99.90
27026;DHT22;14565;48.626;8.978;2022-12-10T15:53:20;0.00;99.90
27026;DHT22;14565;48.626;8.978;2022-12-10T15:55:47;-0.10;99.90
27026;DHT22;14565;48.626;8.978;2022-12-10T15:58:13;-0.10;99.90
27026;DHT22;14565;48.626;8.978;2022-12-10T16:00:40;-0.10;99.90
27026;DHT22;14565;48.626;8.978;2022-12-10T16:03:11;-0.20;99.90
27026;DHT22;14565;48.626;8.978;2022-12-10T16:05:39;-0.20;99.90
27026;DHT22;14565;48.626;8.978;2022-12-10T16:10:47;-0.10;99.90
27026;DHT22;14565;48.626;8.978;2022-12-10T16:13:19;-0.10;99.90
27026;DHT22;14565;48.626;8.978;2022-12-10T16:15:55;-0.10;99.90
27026;DHT22;14565;48.626;8.978;2022-12-10T16:18:23;-0.20;99.90
27026;DHT22;14565;48.626;8.978;2022-12-10T16:20:49;-0.20;99.90
27026;DHT22;14565;48.626;8.978;2022-12-10T16:23:15;-0.10;99.90
27026;DHT22;14565;48.626;8.978;2022-12-10T16:25:41;-0.10;99.90
27026;DHT22;14565;48.626;8.978;2022-12-10T16:28:15;-0.20;99.90
27026;DHT22;14565;48.626;8.978;2022-12-10T16:30:45;-0.20;99.90
27026;DHT22;14565;48.626;8.978;2022-12-10T16:33:14;-0.30;99.90
27026;DHT22;14565;48.626;8.978;2022-12-10T16:35:40;-0.30;99.90
27026;DHT22;14565;48.626;8.978;2022-12-10T16:38:06;-0.30;99.90
27026;DHT22;14565;48.626;8.978;2022-12-10T16:40:32;-0.30;99.90
27026;DHT22;14565;48.626;8.978;2022-12-10T16:42:57;-0.30;99.90
27026;DHT22;14565;48.626;8.978;2022-12-10T16:47:54;-0.40;99.90
27026;DHT22;14565;48.626;8.978;2022-12-10T16:50:22;-0.40;99.90
27026;DHT22;14565;48.626;8.978;2022-12-10T16:52:48;-0.40;99.90
27026;DHT22;14565;48.626;8.978;2022-12-10T16:55:16;-0.40;99.90
27026;DHT22;14565;48.626;8.978;2022-12-10T16:57:42;-0.50;99.90
27026;DHT22;14565;48.626;8.978;2022-12-10T17:00:15;-0.50;99.90
27026;DHT22;14565;48.626;8.978;2022-12-10T17:02:41;-0.60;99.90
27026;DHT22;14565;48.626;8.978;2022-12-10T17:07:43;-0.50;99.90
27026;DHT22;14565;48.626;8.978;2022-12-10T17:10:11;-0.60;99.90
27026;DHT22;14565;48.626;8.978;2022-12-10T17:12:37;-0.50;99.90
27026;DHT22;14565;48.626;8.978;2022-12-10T17:15:04;-0.60;99.90
27026;DHT22;14565;48.626;8.978;2022-12-10T17:17:30;-0.70;99.90
27026;DHT22;14565;48.626;8.978;2022-12-10T17:19:56;-0.70;99.90
27026;DHT22;14565;48.626;8.978;2022-12-10T17:22:22;-0.70;99.90
27026;DHT22;14565;48.626;8.978;2022-12-10T17:24:48;-0.80;99.90
27026;DHT22;14565;48.626;8.978;2022-12-10T17:27:16;-0.70;99.90
27026;DHT22;14565;48.626;8.978;2022-12-10T17:29:44;-0.80;99.90
27026;DHT22;14565;48.626;8.978;2022-12-10T17:32:18;-0.70;99.90
27026;DHT22;14565;48.626;8.978;2022-12-10T17:34:47;-0.80;99.90
27026;DHT22;14565;48.626;8.978;2022-12-10T17:37:18;-0.80;99.90
27026;DHT22;14565;48.626;8.978;2022-12-10T17:39:45;-0.80;99.90
27026;DHT22;14565;48.626;8.978;2022-12-10T17:42:11;-0.80;99.90
27026;DHT22;14565;48.626;8.978;2022-12-10T17:44:37;-0.90;99.90
27026;DHT22;14565;48.626;8.978;2022-12-10T17:47:24;-0.90;99.90
27026;DHT22;14565;48.626;8.978;2022-12-10T17:49:50;-1.00;99.90
27026;DHT22;14565;48.626;8.978;2022-12-10T17:52:16;-0.90;99.90
27026;DHT22;14565;48.626;8.978;2022-12-10T17:54:42;-0.90;99.90
27026;DHT22;14565;48.626;8.978;2022-12-10T17:57:15;-0.90;99.90
27026;DHT22;14565;48.626;8.978;2022-12-10T17:59:42;-0.90;99.90
27026;DHT22;14565;48.626;8.978;2022-12-10T18:02:09;-1.00;99.90
27026;DHT22;14565;48.626;8.978;2022-12-10T18:04:36;-1.00;99.90
27026;DHT22;14565;48.626;8.978;2022-12-10T18:07:01;-0.90;99.90
27026;DHT22;14565;48.626;8.978;2022-12-10T18:09:27;-1.00;99.90
27026;DHT22;14565;48.626;8.978;2022-12-10T18:11:52;-1.10;99.90
27026;DHT22;14565;48.626;8.978;2022-12-10T18:14:19;-1.20;99.90
27026;DHT22;14565;48.626;8.978;2022-12-10T18:16:45;-1.20;99.90
27026;DHT22;14565;48.626;8.978;2022-12-10T18:19:14;-1.20;99.90
27026;DHT22;14565;48.626;8.978;2022-12-10T18:21:40;-1.10;99.90
27026;DHT22;14565;48.626;8.978;2022-12-10T18:24:06;-1.10;99.90
27026;DHT22;14565;48.626;8.978;2022-12-10T18:26:34;-1.00;99.90
27026;DHT22;14565;48.626;8.978;2022-12-10T18:29:01;-1.10;99.90
27026;DHT22;14565;48.626;8.978;2022-12-10T18:31:33;-1.00;99.90
27026;DHT22;14565;48.626;8.978;2022-12-10T18:34:02;-0.90;99.90
27026;DHT22;14565;48.626;8.978;2022-12-10T18:36:31;-0.90;99.90
27026;DHT22;14565;48.626;8.978;2022-12-10T18:38:59;-0.90;99.90
27026;DHT22;14565;48.626;8.978;2022-12-10T18:41:25;-0.80;99.90
27026;DHT22;14565;48.626;8.978;2022-12-10T18:43:50;-0.80;99.90
27026;DHT22;14565;48.626;8.978;2022-12-10T18:46:19;-0.80;99.90
27026;DHT22;14565;48.626;8.978;2022-12-10T18:48:45;-0.70;99.90
27026;DHT22;14565;48.626;8.978;2022-12-10T18:51:12;-0.70;99.90
27026;DHT22;14565;48.626;8.978;2022-12-10T18:53:42;-0.70;99.90
27026;DHT22;14565;48.626;8.978;2022-12-10T18:56:18;-0.80;99.90
27026;DHT22;14565;48.626;8.978;2022-12-10T18:58:44;-0.80;99.90
27026;DHT22;14565;48.626;8.978;2022-12-10T19:01:12;-0.70;99.90
27026;DHT22;14565;48.626;8.978;2022-12-10T19:03:39;-0.70;99.90
27026;DHT22;14565;48.626;8.978;2022-12-10T19:06:19;-0.70;99.90
27026;DHT22;14565;48.626;8.978;2022-12-10T19:08:46;-0.70;99.90
27026;DHT22;14565;48.626;8.978;2022-12-10T19:11:12;-0.70;99.90
27026;DHT22;14565;48.626;8.978;2022-12-10T19:13:40;-0.70;99.90
27026;DHT22;14565;48.626;8.978;2022-12-10T19:16:13;-0.70;99.90
27026;DHT22;14565;48.626;8.978;2022-12-10T19:18:39;-0.60;99.90
27026;DHT22;14565;48.626;8.978;2022-12-10T19:21:05;-0.60;99.90
27026;DHT22;14565;48.626;8.978;2022-12-10T19:23:31;-0.70;99.90
27026;DHT22;14565;48.626;8.978;2022-12-10T19:25:57;-0.70;99.90
27026;DHT22;14565;48.626;8.978;2022-12-10T19:28:23;-0.70;99.90
27026;DHT22;14565;48.626;8.978;2022-12-10T19:30:49;-0.70;99.90
27026;DHT22;14565;48.626;8.978;2022-12-10T19:33:15;-0.60;99.90
27026;DHT22;14565;48.626;8.978;2022-12-10T19:35:41;-0.60;99.90
27026;DHT22;14565;48.626;8.978;2022-12-10T19:38:13;-0.60;99.90
27026;DHT22;14565;48.626;8.978;2022-12-10T19:40:40;-0.60;99.90
27026;DHT22;14565;48.626;8.978;2022-12-10T19:43:06;-0.70;99.90
27026;DHT22;14565;48.626;8.978;2022-12-10T19:45:32;-0.60;99.90
27026;DHT22;14565;48.626;8.978;2022-12-10T19:47:59;-0.60;99.90
27026;DHT22;14565;48.626;8.978;2022-12-10T19:50:27;-0.70;99.90
27026;DHT22;14565;48.626;8.978;2022-12-10T19:52:54;-0.70;99.90
27026;DHT22;14565;48.626;8.978;2022-12-10T19:55:21;-0.60;99.90
27026;DHT22;14565;48.626;8.978;2022-12-10T19:57:47;-0.70;99.90
27026;DHT22;14565;48.626;8.978;2022-12-10T20:00:31;-0.70;99.90
27026;DHT22;14565;48.626;8.978;2022-12-10T20:03:00;-0.70;99.90
27026;DHT22;14565;48.626;8.978;2022-12-10T20:05:26;-0.60;99.90
27026;DHT22;14565;48.626;8.978;2022-12-10T20:07:51;-0.70;99.90
27026;DHT22;14565;48.626;8.978;2022-12-10T20:10:26;-0.80;99.90
27026;DHT22;14565;48.626;8.978;2022-12-10T20:12:52;-0.80;99.90
27026;DHT22;14565;48.626;8.978;2022-12-10T20:15:19;-0.70;99.90
27026;DHT22;14565;48.626;8.978;2022-12-10T20:17:45;-0.70;99.90
27026;DHT22;14565;48.626;8.978;2022-12-10T20:20:20;-0.80;99.90
27026;DHT22;14565;48.626;8.978;2022-12-10T20:22:46;-0.80;99.90
27026;DHT22;14565;48.626;8.978;2022-12-10T20:25:13;-0.80;99.90
27026;DHT22;14565;48.626;8.978;2022-12-10T20:27:40;-0.80;99.90
27026;DHT22;14565;48.626;8.978;2022-12-10T20:30:06;-0.80;99.90
27026;DHT22;14565;48.626;8.978;2022-12-10T20:32:32;-0.80;99.90
27026;DHT22;14565;48.626;8.978;2022-12-10T20:34:58;-0.80;99.90
27026;DHT22;14565;48.626;8.978;2022-12-10T20:37:24;-0.80;99.90
27026;DHT22;14565;48.626;8.978;2022-12-10T20:39:49;-0.90;99.90
27026;DHT22;14565;48.626;8.978;2022-12-10T20:42:15;-0.90;99.90
27026;DHT22;14565;48.626;8.978;2022-12-10T20:44:41;-0.90;99.90
27026;DHT22;14565;48.626;8.978;2022-12-10T20:47:08;-0.90;99.90
27026;DHT22;14565;48.626;8.978;2022-12-10T20:49:34;-0.90;99.90
27026;DHT22;14565;48.626;8.978;2022-12-10T20:52:00;-0.90;99.90
27026;DHT22;14565;48.626;8.978;2022-12-10T20:54:26;-0.80;99.90
27026;DHT22;14565;48.626;8.978;2022-12-10T20:56:52;-0.70;99.90
27026;DHT22;14565;48.626;8.978;2022-12-10T20:59:22;-0.90;99.90
27026;DHT22;14565;48.626;8.978;2022-12-10T21:01:48;-0.90;99.90
27026;DHT22;14565;48.626;8.978;2022-12-10T21:04:13;-0.90;99.90
27026;DHT22;14565;48.626;8.978;2022-12-10T21:06:40;-0.90;99.90
27026;DHT22;14565;48.626;8.978;2022-12-10T21:09:07;-0.90;99.90
27026;DHT22;14565;48.626;8.978;2022-12-10T21:11:33;-0.90;99.90
27026;DHT22;14565;48.626;8.978;2022-12-10T21:13:59;-1.10;99.90
27026;DHT22;14565;48.626;8.978;2022-12-10T21:16:25;-1.10;99.90
27026;DHT22;14565;48.626;8.978;2022-12-10T21:18:53;-1.00;99.90
27026;DHT22;14565;48.626;8.978;2022-12-10T21:21:20;-1.20;99.90
27026;DHT22;14565;48.626;8.978;2022-12-10T21:23:46;-1.20;99.90
27026;DHT22;14565;48.626;8.978;2022-12-10T21:26:13;-1.30;99.90
27026;DHT22;14565;48.626;8.978;2022-12-10T21:28:39;-1.30;99.90
27026;DHT22;14565;48.626;8.978;2022-12-10T21:31:04;-1.30;99.90
27026;DHT22;14565;48.626;8.978;2022-12-10T21:33:30;-1.30;99.90
27026;DHT22;14565;48.626;8.978;2022-12-10T21:35:56;-1.30;99.90
27026;DHT22;14565;48.626;8.978;2022-12-10T21:38:23;-1.40;99.90
27026;DHT22;14565;48.626;8.978;2022-12-10T21:40:48;-1.50;99.90
27026;DHT22;14565;48.626;8.978;2022-12-10T21:43:18;-1.50;99.90
27026;DHT22;14565;48.626;8.978;2022-12-10T21:45:53;-1.50;99.90
27026;DHT22;14565;48.626;8.978;2022-12-10T21:48:24;-1.50;99.90
27026;DHT22;14565;48.626;8.978;2022-12-10T21:51:00;-1.60;99.90
27026;DHT22;14565;48.626;8.978;2022-12-10T21:53:27;-1.80;99.90
27026;DHT22;14565;48.626;8.978;2022-12-10T21:55:53;-1.90;99.90
27026;DHT22;14565;48.626;8.978;2022-12-10T21:58:19;-2.00;99.90
27026;DHT22;14565;48.626;8.978;2022-12-10T22:00:45;-2.00;99.90
27026;DHT22;14565;48.626;8.978;2022-12-10T22:03:11;-2.00;99.90
27026;DHT22;14565;48.626;8.978;2022-12-10T22:05:41;-2.00;99.90
27026;DHT22;14565;48.626;8.978;2022-12-10T22:08:07;-2.10;99.90
27026;DHT22;14565;48.626;8.978;2022-12-10T22:10:33;-2.00;99.90
27026;DHT22;14565;48.626;8.978;2022-12-10T22:12:58;-2.10;99.90
27026;DHT22;14565;48.626;8.978;2022-12-10T22:15:24;-2.10;99.90
27026;DHT22;14565;48.626;8.978;2022-12-10T22:17:51;-2.00;99.90
27026;DHT22;14565;48.626;8.978;2022-12-10T22:20:17;-2.00;99.90
27026;DHT22;14565;48.626;8.978;2022-12-10T22:22:43;-2.10;99.90
27026;DHT22;14565;48.626;8.978;2022-12-10T22:25:09;-2.10;99.90
27026;DHT22;14565;48.626;8.978;2022-12-10T22:27:35;-2.20;99.90
27026;DHT22;14565;48.626;8.978;2022-12-10T22:30:02;-2.20;99.90
27026;DHT22;14565;48.626;8.978;2022-12-10T22:32:28;-2.20;99.90
27026;DHT22;14565;48.626;8.978;2022-12-10T22:34:54;-2.30;99.90
27026;DHT22;14565;48.626;8.978;2022-12-10T22:37:20;-2.40;99.90
27026;DHT22;14565;48.626;8.978;2022-12-10T22:39:46;-2.40;99.90
27026;DHT22;14565;48.626;8.978;2022-12-10T22:42:12;-2.50;99.90
27026;DHT22;14565;48.626;8.978;2022-12-10T22:44:37;-2.40;99.90
27026;DHT22;14565;48.626;8.978;2022-12-10T22:47:03;-2.50;99.90
27026;DHT22;14565;48.626;8.978;2022-12-10T22:49:29;-2.40;99.90
27026;DHT22;14565;48.626;8.978;2022-12-10T22:51:54;-2.40;99.90
27026;DHT22;14565;48.626;8.978;2022-12-10T22:54:20;-2.40;99.90
27026;DHT22;14565;48.626;8.978;2022-12-10T22:56:48;-2.30;99.90
27026;DHT22;14565;48.626;8.978;2022-12-10T22:59:13;-2.30;99.90
27026;DHT22;14565;48.626;8.978;2022-12-10T23:01:39;-2.30;99.90
27026;DHT22;14565;48.626;8.978;2022-12-10T23:04:05;-2.30;99.90
27026;DHT22;14565;48.626;8.978;2022-12-10T23:06:31;-2.30;99.90
27026;DHT22;14565;48.626;8.978;2022-12-10T23:08:57;-2.30;99.90
27026;DHT22;14565;48.626;8.978;2022-12-10T23:11:22;-2.30;99.90
27026;DHT22;14565;48.626;8.978;2022-12-10T23:13:48;-2.40;99.90
27026;DHT22;14565;48.626;8.978;2022-12-10T23:16:16;-2.50;99.90
27026;DHT22;14565;48.626;8.978;2022-12-10T23:18:43;-2.60;99.90
27026;DHT22;14565;48.626;8.978;2022-12-10T23:21:20;-2.60;99.90
27026;DHT22;14565;48.626;8.978;2022-12-10T23:23:47;-2.60;99.90
27026;DHT22;14565;48.626;8.978;2022-12-10T23:26:13;-2.70;99.90
27026;DHT22;14565;48.626;8.978;2022-12-10T23:28:39;-2.70;99.90
27026;DHT22;14565;48.626;8.978;2022-12-10T23:31:05;-2.70;99.90
27026;DHT22;14565;48.626;8.978;2022-12-10T23:33:31;-2.70;99.90
27026;DHT22;14565;48.626;8.978;2022-12-10T23:35:57;-2.70;99.90
27026;DHT22;14565;48.626;8.978;2022-12-10T23:38:23;-2.90;99.90
27026;DHT22;14565;48.626;8.978;2022-12-10T23:40:49;-2.90;99.90
27026;DHT22;14565;48.626;8.978;2022-12-10T23:43:14;-2.90;99.90
27026;DHT22;14565;48.626;8.978;2022-12-10T23:45:41;-3.00;99.90
27026;DHT22;14565;48.626;8.978;2022-12-10T23:48:07;-3.10;99.90
27026;DHT22;14565;48.626;8.978;2022-12-10T23:50:33;-3.20;99.90
27026;DHT22;14565;48.626;8.978;2022-12-10T23:52:59;-3.20;99.90
27026;DHT22;14565;48.626;8.978;2022-12-10T23:55:25;-3.30;99.90
27026;DHT22;14565;48.626;8.978;2022-12-10T23:57:51;-3.30;99.90
